Time;durP1;ratioP1;P1;durP2;ratioP2;P2;SDS_P1;SDS_P2;PMS_P1;PMS_P2;Temp;Humidity;BMP_temperature;BMP_pressure;BME280_temperature;BME280_humidity;BME280_pressure;Samples;Min_cycle;Max_cycle;Signal;HPM_P1;HPM_P2
2022/09/25 00:00:54;;;;;;;;;;;14.10;87.00;;;;;;5043265;28;19933;-69
2022/09/25 00:03:27;;;;;;;;;;;14.00;87.00;;;;;;5049462;28;19925;-70
2022/09/25 00:06:00;;;;;;;;;;;14.00;87.00;;;;;;5048021;28;20382;-70
2022/09/25 00:08:27;;;;;;;;;;;14.10;87.00;;;;;;5048262;28;20363;-70
2022/09/25 00:10:53;;;;;;;;;;;14.00;87.00;;;;;;5048120;28;19975;-72
2022/09/25 00:13:21;;;;;;;;;;;14.00;87.00;;;;;;5049012;28;19950;-71
2022/09/25 00:15:50;;;;;;;;;;;14.00;87.10;;;;;;5048208;28;19932;-72
2022/09/25 00:19:48;;;;;;;;;;;14.10;87.10;;;;;;5047755;28;19935;-71
2022/09/25 00:21:05;;;;;;;;;;;14.00;87.10;;;;;;5048866;28;19929;-70
2022/09/25 00:23:33;;;;;;;;;;;14.00;87.10;;;;;;5038006;28;20523;-70
2022/09/25 00:26:00;;;;;;;;;;;14.00;87.10;;;;;;5045455;28;20438;-70
2022/09/25 00:28:27;;;;;;;;;;;14.00;87.10;;;;;;5048704;28;19983;-71
2022/09/25 00:30:54;;;;;;;;;;;14.00;87.20;;;;;;5050380;28;19925;-71
2022/09/25 00:33:21;;;;;;;;;;;14.00;87.20;;;;;;5046835;28;20379;-69
2022/09/25 00:35:48;;;;;;;;;;;14.00;87.20;;;;;;5037574;28;19933;-69
2022/09/25 00:38:16;;;;;;;;;;;14.00;87.30;;;;;;5045731;28;20456;-69
2022/09/25 00:40:42;;;;;;;;;;;14.00;87.30;;;;;;5045916;28;19933;-71
2022/09/25 00:43:12;;;;;;;;;;;14.00;87.20;;;;;;5041356;28;19970;-71
2022/09/25 00:45:39;;;;;;;;;;;14.00;87.20;;;;;;5044420;28;19925;-71
2022/09/25 00:48:08;;;;;;;;;;;14.00;87.10;;;;;;5033458;28;19999;-71
2022/09/25 00:50:37;;;;;;;;;;;14.00;87.10;;;;;;5044240;28;19970;-70
2022/09/25 00:53:08;;;;;;;;;;;14.00;87.10;;;;;;5034895;28;19948;-73
2022/09/25 00:55:37;;;;;;;;;;;14.00;87.20;;;;;;5043204;28;19931;-72
2022/09/25 00:58:05;;;;;;;;;;;13.90;87.30;;;;;;5049035;28;19932;-71
2022/09/25 01:00:34;;;;;;;;;;;14.00;87.30;;;;;;5043404;28;20008;-71
2022/09/25 01:03:01;;;;;;;;;;;13.90;87.30;;;;;;5047583;28;19936;-70
2022/09/25 01:05:33;;;;;;;;;;;13.90;87.30;;;;;;5044834;28;19925;-71
2022/09/25 01:08:01;;;;;;;;;;;13.90;87.30;;;;;;5047761;28;19929;-71
2022/09/25 01:10:28;;;;;;;;;;;13.90;87.30;;;;;;5036074;28;19960;-70
2022/09/25 01:12:57;;;;;;;;;;;13.90;87.30;;;;;;5040680;28;19932;-71
2022/09/25 01:15:26;;;;;;;;;;;13.90;87.30;;;;;;5014581;28;19929;-71
2022/09/25 01:18:00;;;;;;;;;;;13.90;87.40;;;;;;5015680;28;19929;-71
2022/09/25 01:20:35;;;;;;;;;;;13.90;87.40;;;;;;5022528;28;19929;-71
2022/09/25 01:23:17;;;;;;;;;;;13.90;87.50;;;;;;5019949;28;19932;-72
2022/09/25 01:25:51;;;;;;;;;;;13.90;87.50;;;;;;5041250;28;20367;-70
2022/09/25 01:28:26;;;;;;;;;;;13.90;87.50;;;;;;5044699;28;20393;-71
2022/09/25 01:30:58;;;;;;;;;;;13.80;87.50;;;;;;5047588;28;19924;-71
2022/09/25 01:33:31;;;;;;;;;;;13.90;87.40;;;;;;5046672;28;20448;-72
2022/09/25 01:36:00;;;;;;;;;;;13.80;87.50;;;;;;5045346;28;19932;-73
2022/09/25 01:38:31;;;;;;;;;;;13.90;87.50;;;;;;5047998;28;19929;-69
2022/09/25 01:41:02;;;;;;;;;;;13.80;87.40;;;;;;5046428;28;20282;-70
2022/09/25 01:43:32;;;;;;;;;;;13.90;87.40;;;;;;5045870;28;19933;-71
2022/09/25 01:46:05;;;;;;;;;;;13.80;87.40;;;;;;5033940;28;19929;-71
2022/09/25 01:48:33;;;;;;;;;;;13.90;87.50;;;;;;5046671;28;19936;-70
2022/09/25 01:51:02;;;;;;;;;;;13.80;87.50;;;;;;5044032;28;19936;-71
2022/09/25 01:53:32;;;;;;;;;;;13.80;87.50;;;;;;5047896;28;19933;-71
2022/09/25 01:56:01;;;;;;;;;;;13.90;87.50;;;;;;5047469;28;20369;-70
2022/09/25 01:58:31;;;;;;;;;;;13.90;87.50;;;;;;5044600;28;19956;-73
2022/09/25 02:01:01;;;;;;;;;;;13.80;87.50;;;;;;5036808;28;19924;-71
2022/09/25 02:03:31;;;;;;;;;;;13.80;87.50;;;;;;5043344;28;19983;-70
2022/09/25 02:06:00;;;;;;;;;;;13.80;87.60;;;;;;5043774;28;19924;-69
2022/09/25 02:08:28;;;;;;;;;;;13.80;87.60;;;;;;5048000;28;19929;-69
2022/09/25 02:10:57;;;;;;;;;;;13.80;87.60;;;;;;5045809;28;20365;-70
2022/09/25 02:13:26;;;;;;;;;;;13.80;87.50;;;;;;5048301;28;19928;-70
2022/09/25 02:15:56;;;;;;;;;;;13.80;87.50;;;;;;5041022;28;19938;-68
2022/09/25 02:21:13;;;;;;;;;;;13.80;87.40;;;;;;5033756;28;19972;-72
2022/09/25 02:23:49;;;;;;;;;;;13.80;87.50;;;;;;5039942;28;19929;-71
2022/09/25 02:26:20;;;;;;;;;;;13.80;87.50;;;;;;5040081;28;19933;-71
2022/09/25 02:28:48;;;;;;;;;;;13.80;87.40;;;;;;5036976;28;19929;-69
2022/09/25 02:31:15;;;;;;;;;;;13.70;87.50;;;;;;5034555;28;19928;-69
2022/09/25 02:33:43;;;;;;;;;;;13.80;87.40;;;;;;5034963;28;20028;-71
2022/09/25 02:36:16;;;;;;;;;;;13.80;87.40;;;;;;5036105;28;20048;-70
2022/09/25 02:38:43;;;;;;;;;;;13.80;87.40;;;;;;5028680;28;20482;-70
2022/09/25 02:41:20;;;;;;;;;;;13.80;87.40;;;;;;5041204;28;19936;-70
2022/09/25 02:43:52;;;;;;;;;;;13.80;87.50;;;;;;5041135;28;20404;-69
2022/09/25 02:46:24;;;;;;;;;;;13.80;87.40;;;;;;5032999;28;19965;-68
2022/09/25 02:48:54;;;;;;;;;;;13.70;87.50;;;;;;5034248;28;20080;-69
2022/09/25 02:51:26;;;;;;;;;;;13.70;87.60;;;;;;5028040;28;20468;-70
2022/09/25 02:53:57;;;;;;;;;;;13.70;87.60;;;;;;5038387;28;19994;-69
2022/09/25 02:56:26;;;;;;;;;;;13.70;87.50;;;;;;5042042;28;19929;-71
2022/09/25 02:58:55;;;;;;;;;;;13.70;87.60;;;;;;5046555;28;19925;-69
2022/09/25 03:01:23;;;;;;;;;;;13.70;87.60;;;;;;5039725;28;20006;-69
2022/09/25 03:04:00;;;;;;;;;;;13.70;87.60;;;;;;5036992;28;19973;-68
2022/09/25 03:06:30;;;;;;;;;;;13.70;87.70;;;;;;5034593;28;19965;-69
2022/09/25 03:08:58;;;;;;;;;;;13.70;87.80;;;;;;5039020;28;19984;-71
2022/09/25 03:11:26;;;;;;;;;;;13.70;87.70;;;;;;5033845;28;20059;-69
2022/09/25 03:13:57;;;;;;;;;;;13.70;87.70;;;;;;5039355;28;20019;-70
2022/09/25 03:16:29;;;;;;;;;;;13.70;87.70;;;;;;5037777;28;20308;-70
2022/09/25 03:18:55;;;;;;;;;;;13.70;87.70;;;;;;5040291;28;20162;-69
2022/09/25 03:21:23;;;;;;;;;;;13.70;87.70;;;;;;5038194;28;19937;-70
2022/09/25 03:23:51;;;;;;;;;;;13.70;87.60;;;;;;5039979;28;20010;-71
2022/09/25 03:26:17;;;;;;;;;;;13.70;87.60;;;;;;5040167;28;19932;-70
2022/09/25 03:28:45;;;;;;;;;;;13.70;87.60;;;;;;5035433;28;20358;-70
2022/09/25 03:31:12;;;;;;;;;;;13.70;87.60;;;;;;5042467;28;19975;-70
2022/09/25 03:33:39;;;;;;;;;;;13.70;87.60;;;;;;5045424;28;19956;-69
2022/09/25 03:36:09;;;;;;;;;;;13.60;87.70;;;;;;5046864;28;19924;-69
2022/09/25 03:38:36;;;;;;;;;;;13.60;87.70;;;;;;5046283;28;20023;-71
2022/09/25 03:41:07;;;;;;;;;;;13.60;87.70;;;;;;5042970;28;19931;-70
2022/09/25 03:43:35;;;;;;;;;;;13.60;87.70;;;;;;5043124;28;19935;-71
2022/09/25 03:46:02;;;;;;;;;;;13.60;87.80;;;;;;5043588;28;19941;-69
2022/09/25 03:48:29;;;;;;;;;;;13.60;87.80;;;;;;5046429;28;19925;-70
2022/09/25 03:50:56;;;;;;;;;;;13.60;87.80;;;;;;5045302;28;19932;-70
2022/09/25 03:53:25;;;;;;;;;;;13.60;87.80;;;;;;5043549;28;20054;-70
2022/09/25 03:55:52;;;;;;;;;;;13.60;87.70;;;;;;5049616;28;19929;-69
2022/09/25 03:58:23;;;;;;;;;;;13.60;87.70;;;;;;5038297;28;19929;-70
2022/09/25 04:00:49;;;;;;;;;;;13.60;87.80;;;;;;5033564;28;19968;-70
2022/09/25 04:03:16;;;;;;;;;;;13.60;87.70;;;;;;5042461;28;19940;-70
2022/09/25 04:05:44;;;;;;;;;;;13.60;87.80;;;;;;5050086;28;19928;-69
2022/09/25 04:08:11;;;;;;;;;;;13.60;87.80;;;;;;5044471;28;20300;-69
2022/09/25 04:10:39;;;;;;;;;;;13.60;87.80;;;;;;5047880;28;20414;-69
2022/09/25 04:13:06;;;;;;;;;;;13.60;87.80;;;;;;5045143;28;19929;-70
2022/09/25 04:15:35;;;;;;;;;;;13.60;87.80;;;;;;5034373;28;20312;-70
2022/09/25 04:18:02;;;;;;;;;;;13.50;87.80;;;;;;5043318;28;19932;-70
2022/09/25 04:20:28;;;;;;;;;;;13.50;87.80;;;;;;5041336;28;19952;-70
2022/09/25 04:22:55;;;;;;;;;;;13.50;87.80;;;;;;5045780;28;19939;-71
2022/09/25 04:25:25;;;;;;;;;;;13.60;87.80;;;;;;5036732;28;19972;-71
2022/09/25 04:27:52;;;;;;;;;;;13.60;87.80;;;;;;5042742;28;20363;-70
2022/09/25 04:30:19;;;;;;;;;;;13.50;87.90;;;;;;5032656;28;20042;-70
2022/09/25 04:35:32;;;;;;;;;;;13.50;87.90;;;;;;5027157;28;19929;-70
2022/09/25 04:37:59;;;;;;;;;;;13.50;87.80;;;;;;5027020;28;19933;-69
2022/09/25 04:40:25;;;;;;;;;;;13.50;87.80;;;;;;5020556;28;19975;-70
2022/09/25 04:42:54;;;;;;;;;;;13.50;87.80;;;;;;5030101;28;20358;-71
2022/09/25 04:45:21;;;;;;;;;;;13.60;87.80;;;;;;5038890;28;19982;-69
2022/09/25 04:47:50;;;;;;;;;;;13.50;87.80;;;;;;5046381;28;19932;-69
2022/09/25 04:50:17;;;;;;;;;;;13.50;87.80;;;;;;5045369;28;20371;-69
2022/09/25 04:52:48;;;;;;;;;;;13.50;87.90;;;;;;5045512;28;20012;-70
2022/09/25 04:55:15;;;;;;;;;;;13.50;87.90;;;;;;5046063;28;19978;-69
2022/09/25 04:57:44;;;;;;;;;;;13.50;87.80;;;;;;5023179;28;20276;-70
2022/09/25 05:00:18;;;;;;;;;;;13.50;87.80;;;;;;5037148;28;19929;-69
2022/09/25 05:02:44;;;;;;;;;;;13.50;87.80;;;;;;5045780;28;20287;-71
2022/09/25 05:05:13;;;;;;;;;;;13.50;87.80;;;;;;5047636;28;19996;-69
2022/09/25 05:07:39;;;;;;;;;;;13.50;87.80;;;;;;5041650;28;19931;-69
2022/09/25 05:10:08;;;;;;;;;;;13.50;87.80;;;;;;5046709;28;19925;-70
2022/09/25 05:12:37;;;;;;;;;;;13.50;87.80;;;;;;5047143;28;19929;-69
2022/09/25 05:15:04;;;;;;;;;;;13.50;87.90;;;;;;5040576;28;19929;-69
2022/09/25 05:17:31;;;;;;;;;;;13.50;87.80;;;;;;5039956;28;19928;-69
2022/09/25 05:19:58;;;;;;;;;;;13.50;87.80;;;;;;5045858;28;19925;-69
2022/09/25 05:22:27;;;;;;;;;;;13.50;87.80;;;;;;5047230;28;19943;-70
2022/09/25 05:24:54;;;;;;;;;;;13.50;87.80;;;;;;5045171;28;19932;-70
2022/09/25 05:27:21;;;;;;;;;;;13.50;87.80;;;;;;5039841;28;19956;-70
2022/09/25 05:29:48;;;;;;;;;;;13.50;87.80;;;;;;5042344;28;19931;-70
2022/09/25 05:32:14;;;;;;;;;;;13.50;87.80;;;;;;5042671;28;20366;-69
2022/09/25 05:34:41;;;;;;;;;;;13.50;87.80;;;;;;5046805;28;20003;-69
2022/09/25 05:37:08;;;;;;;;;;;13.40;87.90;;;;;;5044056;28;19928;-70
2022/09/25 05:39:36;;;;;;;;;;;13.50;87.80;;;;;;5041718;28;19996;-69
2022/09/25 05:42:02;;;;;;;;;;;13.50;87.90;;;;;;5042952;28;20283;-71
2022/09/25 05:44:29;;;;;;;;;;;13.50;87.90;;;;;;5017386;28;19952;-70
2022/09/25 05:46:56;;;;;;;;;;;13.40;87.80;;;;;;5040672;28;20330;-72
2022/09/25 05:49:22;;;;;;;;;;;13.50;87.90;;;;;;5012422;28;20413;-69
2022/09/25 05:51:49;;;;;;;;;;;13.50;87.80;;;;;;5022671;28;20449;-70
2022/09/25 05:54:16;;;;;;;;;;;13.50;87.80;;;;;;5039317;28;19933;-70
2022/09/25 05:56:44;;;;;;;;;;;13.50;87.90;;;;;;5039272;28;19936;-69
2022/09/25 05:59:10;;;;;;;;;;;13.50;87.80;;;;;;5040661;28;19929;-69
2022/09/25 06:01:37;;;;;;;;;;;13.50;87.90;;;;;;5036466;28;19933;-69
2022/09/25 06:04:04;;;;;;;;;;;13.50;87.80;;;;;;5040525;28;19936;-70
2022/09/25 06:06:31;;;;;;;;;;;13.50;87.80;;;;;;5044916;28;20016;-70
2022/09/25 06:09:00;;;;;;;;;;;13.50;87.90;;;;;;5041302;28;20023;-69
2022/09/25 06:11:30;;;;;;;;;;;13.50;87.90;;;;;;5043831;28;20011;-70
2022/09/25 06:13:58;;;;;;;;;;;13.50;88.00;;;;;;5030930;28;19928;-69
2022/09/25 06:16:25;;;;;;;;;;;13.50;87.90;;;;;;5032444;28;20386;-68
2022/09/25 06:18:55;;;;;;;;;;;13.50;88.00;;;;;;5031192;28;19999;-69
2022/09/25 06:21:21;;;;;;;;;;;13.50;88.10;;;;;;5020695;28;19965;-69
2022/09/25 06:23:48;;;;;;;;;;;13.50;88.10;;;;;;5024734;28;19925;-68
2022/09/25 06:26:15;;;;;;;;;;;13.40;88.10;;;;;;5019049;28;19933;-69
2022/09/25 06:28:45;;;;;;;;;;;13.40;88.10;;;;;;5024166;28;19929;-69
2022/09/25 06:31:13;;;;;;;;;;;13.40;88.20;;;;;;5016196;28;19937;-70
2022/09/25 06:33:40;;;;;;;;;;;13.40;88.20;;;;;;5022518;28;19925;-68
2022/09/25 06:36:08;;;;;;;;;;;13.50;88.20;;;;;;5026264;28;20488;-68
2022/09/25 06:38:35;;;;;;;;;;;13.50;88.10;;;;;;5025245;28;19925;-69
2022/09/25 06:41:01;;;;;;;;;;;13.50;88.10;;;;;;5040117;28;19974;-70
2022/09/25 06:43:29;;;;;;;;;;;13.50;88.10;;;;;;5038246;28;19929;-68
2022/09/25 06:45:58;;;;;;;;;;;13.50;88.00;;;;;;5029432;28;20438;-70
2022/09/25 06:48:26;;;;;;;;;;;13.50;88.00;;;;;;5036190;28;19933;-69
2022/09/25 06:50:54;;;;;;;;;;;13.50;88.10;;;;;;5028456;28;19929;-69
2022/09/25 06:53:22;;;;;;;;;;;13.50;88.10;;;;;;5039313;28;19994;-69
2022/09/25 06:55:49;;;;;;;;;;;13.40;88.10;;;;;;5035139;28;19971;-68
2022/09/25 06:58:19;;;;;;;;;;;13.50;88.10;;;;;;5040140;28;20387;-68
2022/09/25 07:00:46;;;;;;;;;;;13.50;88.10;;;;;;5038192;28;20306;-68
2022/09/25 07:06:14;;;;;;;;;;;13.50;88.10;;;;;;5022070;28;20477;-69
2022/09/25 07:08:41;;;;;;;;;;;13.50;88.20;;;;;;5002013;28;19937;-69
2022/09/25 07:11:08;;;;;;;;;;;13.50;88.10;;;;;;5004410;28;19961;-70
2022/09/25 07:13:35;;;;;;;;;;;13.50;88.10;;;;;;5036747;28;19929;-68
2022/09/25 07:16:03;;;;;;;;;;;13.60;88.10;;;;;;5037018;28;19931;-69
2022/09/25 07:18:29;;;;;;;;;;;13.60;87.90;;;;;;5046015;28;19925;-68
2022/09/25 07:20:59;;;;;;;;;;;13.60;88.00;;;;;;5045498;28;19929;-69
2022/09/25 07:23:29;;;;;;;;;;;13.60;88.10;;;;;;5034745;28;19929;-68
2022/09/25 07:25:56;;;;;;;;;;;13.60;88.10;;;;;;5043026;28;19957;-70
2022/09/25 07:28:23;;;;;;;;;;;13.60;88.10;;;;;;5026785;28;19924;-69
2022/09/25 07:30:50;;;;;;;;;;;13.60;88.00;;;;;;5042159;28;19932;-68
2022/09/25 07:33:16;;;;;;;;;;;13.60;87.80;;;;;;5042062;28;19933;-69
2022/09/25 07:35:43;;;;;;;;;;;13.60;87.80;;;;;;5044359;28;19933;-69
2022/09/25 07:38:10;;;;;;;;;;;13.70;87.90;;;;;;5045160;28;19925;-70
2022/09/25 07:40:38;;;;;;;;;;;13.60;87.90;;;;;;5034264;28;19924;-70
2022/09/25 07:43:05;;;;;;;;;;;13.60;87.80;;;;;;5043158;28;19931;-71
2022/09/25 07:45:32;;;;;;;;;;;13.60;87.70;;;;;;5036732;28;19940;-68
2022/09/25 07:48:01;;;;;;;;;;;13.70;87.60;;;;;;5044586;28;20014;-70
2022/09/25 07:50:28;;;;;;;;;;;13.70;87.60;;;;;;5046065;28;20539;-69
2022/09/25 07:52:54;;;;;;;;;;;13.70;87.50;;;;;;5033023;28;20015;-71
2022/09/25 07:55:23;;;;;;;;;;;13.70;87.50;;;;;;5045387;28;19932;-67
2022/09/25 07:57:56;;;;;;;;;;;13.70;87.40;;;;;;5040917;28;19929;-67
2022/09/25 08:00:23;;;;;;;;;;;13.70;87.40;;;;;;5019482;28;19952;-63
2022/09/25 08:02:55;;;;;;;;;;;13.70;87.40;;;;;;5022546;28;20378;-62
2022/09/25 08:05:22;;;;;;;;;;;13.70;87.40;;;;;;5037954;28;19928;-64
2022/09/25 08:07:49;;;;;;;;;;;13.70;87.50;;;;;;5047097;28;19925;-64
2022/09/25 08:10:16;;;;;;;;;;;13.70;87.60;;;;;;5037415;28;19933;-63
2022/09/25 08:12:43;;;;;;;;;;;13.70;87.50;;;;;;5038894;28;19928;-62
2022/09/25 08:15:12;;;;;;;;;;;13.80;87.50;;;;;;5011049;28;19933;-65
2022/09/25 08:17:39;;;;;;;;;;;13.80;87.50;;;;;;5045559;28;20443;-66
2022/09/25 08:20:06;;;;;;;;;;;13.80;87.40;;;;;;5036433;28;19924;-63
2022/09/25 08:22:33;;;;;;;;;;;13.80;87.40;;;;;;5041704;28;19928;-64
2022/09/25 08:25:01;;;;;;;;;;;13.80;87.60;;;;;;5026499;28;20382;-62
2022/09/25 08:27:27;;;;;;;;;;;13.90;87.50;;;;;;5017610;28;20028;-63
2022/09/25 08:29:54;;;;;;;;;;;13.80;87.50;;;;;;5014550;28;19975;-63
2022/09/25 08:32:22;;;;;;;;;;;13.90;87.60;;;;;;5042396;28;19947;-64
2022/09/25 08:34:50;;;;;;;;;;;13.90;87.50;;;;;;5049615;28;19929;-63
2022/09/25 08:37:18;;;;;;;;;;;14.00;87.50;;;;;;5036936;28;20243;-64
2022/09/25 08:39:45;;;;;;;;;;;14.00;87.60;;;;;;5047785;28;19932;-64
2022/09/25 08:42:16;;;;;;;;;;;14.10;87.60;;;;;;5040461;28;19949;-65
2022/09/25 08:44:44;;;;;;;;;;;14.10;87.60;;;;;;5046477;28;20433;-64
2022/09/25 08:50:01;;;;;;;;;;;14.10;87.60;;;;;;5045397;28;19936;-65
2022/09/25 08:52:31;;;;;;;;;;;14.20;87.60;;;;;;5041655;28;19924;-64
2022/09/25 08:54:58;;;;;;;;;;;14.20;87.60;;;;;;5041559;28;19929;-64
2022/09/25 08:57:29;;;;;;;;;;;14.20;87.60;;;;;;5041168;28;19932;-64
2022/09/25 08:59:59;;;;;;;;;;;14.30;87.60;;;;;;5045154;28;20424;-66
2022/09/25 09:02:32;;;;;;;;;;;14.30;87.50;;;;;;5039178;28;19936;-64
2022/09/25 09:05:01;;;;;;;;;;;14.40;87.40;;;;;;5043746;28;19932;-64
2022/09/25 09:07:31;;;;;;;;;;;14.40;87.30;;;;;;5044792;28;19932;-65
2022/09/25 09:10:00;;;;;;;;;;;14.50;87.20;;;;;;5041540;28;20289;-64
2022/09/25 09:12:29;;;;;;;;;;;14.60;87.30;;;;;;5046489;28;19929;-64
2022/09/25 09:15:00;;;;;;;;;;;14.60;87.20;;;;;;5044918;28;20413;-63
2022/09/25 09:17:28;;;;;;;;;;;14.60;87.20;;;;;;5038943;28;19936;-63
2022/09/25 09:19:59;;;;;;;;;;;14.60;87.20;;;;;;5040060;28;19928;-63
2022/09/25 09:22:29;;;;;;;;;;;14.60;86.90;;;;;;5044682;28;19928;-63
2022/09/25 09:25:01;;;;;;;;;;;14.60;87.00;;;;;;5040914;28;19992;-65
2022/09/25 09:27:41;;;;;;;;;;;14.70;87.10;;;;;;5039833;28;19929;-64
2022/09/25 09:30:15;;;;;;;;;;;14.70;87.00;;;;;;5040110;28;19925;-65
2022/09/25 09:32:56;;;;;;;;;;;14.70;87.10;;;;;;5039763;28;19925;-64
2022/09/25 09:35:27;;;;;;;;;;;14.70;87.00;;;;;;5043734;28;19932;-63
2022/09/25 09:38:00;;;;;;;;;;;14.70;87.00;;;;;;5046589;28;19933;-63
2022/09/25 09:40:35;;;;;;;;;;;14.70;87.00;;;;;;5031676;28;20375;-64
2022/09/25 09:43:06;;;;;;;;;;;14.70;87.00;;;;;;5037268;28;19928;-63
2022/09/25 09:45:39;;;;;;;;;;;14.70;87.00;;;;;;5043396;28;19948;-64
2022/09/25 09:48:09;;;;;;;;;;;14.70;87.00;;;;;;5038593;28;19928;-63
2022/09/25 09:50:40;;;;;;;;;;;14.70;87.00;;;;;;5044993;28;20282;-64
2022/09/25 09:53:24;;;;;;;;;;;14.70;87.10;;;;;;5044405;28;20039;-63
2022/09/25 09:55:53;;;;;;;;;;;14.70;87.10;;;;;;5037704;28;19929;-67
2022/09/25 09:58:22;;;;;;;;;;;14.70;87.00;;;;;;5036122;28;19929;-65
2022/09/25 10:00:49;;;;;;;;;;;14.80;87.00;;;;;;5038018;28;19943;-63
2022/09/25 10:03:18;;;;;;;;;;;14.80;86.90;;;;;;5039695;28;20760;-63
2022/09/25 10:05:46;;;;;;;;;;;14.80;86.80;;;;;;5043778;28;20428;-64
2022/09/25 10:08:15;;;;;;;;;;;14.80;86.90;;;;;;5043431;28;20396;-64
2022/09/25 10:10:43;;;;;;;;;;;14.80;87.10;;;;;;5038278;28;19932;-63
2022/09/25 10:13:14;;;;;;;;;;;14.80;87.20;;;;;;5037355;28;19924;-65
2022/09/25 10:15:42;;;;;;;;;;;14.80;87.10;;;;;;5041300;28;20397;-64
2022/09/25 10:18:09;;;;;;;;;;;14.80;86.80;;;;;;5035061;28;19933;-63
2022/09/25 10:20:40;;;;;;;;;;;14.80;86.80;;;;;;5044446;28;20340;-63
2022/09/25 10:23:16;;;;;;;;;;;14.80;86.80;;;;;;5041396;28;19929;-65
2022/09/25 10:25:44;;;;;;;;;;;14.80;87.00;;;;;;5041754;28;20316;-64
2022/09/25 10:28:22;;;;;;;;;;;14.80;87.00;;;;;;5032316;28;20690;-63
2022/09/25 10:30:48;;;;;;;;;;;14.80;87.00;;;;;;5041491;28;20416;-65
2022/09/25 10:33:18;;;;;;;;;;;14.80;87.00;;;;;;5042835;28;19933;-64
2022/09/25 10:35:47;;;;;;;;;;;14.80;87.20;;;;;;5039968;28;19932;-64
2022/09/25 10:38:20;;;;;;;;;;;14.90;87.20;;;;;;5040888;28;19939;-64
2022/09/25 10:40:56;;;;;;;;;;;15.00;87.20;;;;;;5036773;28;19936;-65
2022/09/25 10:43:23;;;;;;;;;;;15.10;86.90;;;;;;5041910;28;19947;-64
2022/09/25 10:45:51;;;;;;;;;;;15.20;86.70;;;;;;5038028;28;19933;-63
2022/09/25 10:51:09;;;;;;;;;;;15.40;85.70;;;;;;5038869;28;19937;-65
2022/09/25 10:53:36;;;;;;;;;;;15.50;85.50;;;;;;5041128;28;19975;-64
2022/09/25 10:56:07;;;;;;;;;;;15.60;85.70;;;;;;5043898;28;20365;-64
2022/09/25 10:58:39;;;;;;;;;;;15.70;85.70;;;;;;5037991;28;19965;-64
2022/09/25 11:01:12;;;;;;;;;;;15.70;85.30;;;;;;5024302;28;19933;-64
2022/09/25 11:03:44;;;;;;;;;;;15.70;85.20;;;;;;5039034;28;19929;-63
2022/09/25 11:06:19;;;;;;;;;;;15.70;84.90;;;;;;5040256;28;19925;-65
2022/09/25 11:08:48;;;;;;;;;;;15.80;84.90;;;;;;5041180;28;19929;-64
2022/09/25 11:11:20;;;;;;;;;;;15.80;84.80;;;;;;5037809;28;19933;-65
2022/09/25 11:13:48;;;;;;;;;;;15.80;84.90;;;;;;5037483;28;19928;-64
2022/09/25 11:16:15;;;;;;;;;;;15.80;84.90;;;;;;5035727;28;19933;-64
2022/09/25 11:18:44;;;;;;;;;;;15.70;85.10;;;;;;5039124;28;20352;-64
2022/09/25 11:21:21;;;;;;;;;;;15.70;85.20;;;;;;5045741;28;19932;-63
2022/09/25 11:23:57;;;;;;;;;;;15.60;85.00;;;;;;5042315;28;19929;-65
2022/09/25 11:26:27;;;;;;;;;;;15.60;85.10;;;;;;5033546;28;19933;-64
2022/09/25 11:28:57;;;;;;;;;;;15.50;85.10;;;;;;5042101;28;20431;-65
2022/09/25 11:31:25;;;;;;;;;;;15.50;85.30;;;;;;5039556;28;20012;-64
2022/09/25 11:33:55;;;;;;;;;;;15.40;85.70;;;;;;5040525;28;19929;-65
2022/09/25 11:36:24;;;;;;;;;;;15.40;85.90;;;;;;5039238;28;19929;-64
2022/09/25 11:41:42;;;;;;;;;;;15.40;86.00;;;;;;5033779;28;19925;-64
2022/09/25 11:44:13;;;;;;;;;;;15.40;86.30;;;;;;5044766;28;19935;-63
2022/09/25 11:46:46;;;;;;;;;;;15.40;86.50;;;;;;5041196;28;19936;-63
2022/09/25 11:49:16;;;;;;;;;;;15.30;86.50;;;;;;5036041;28;19975;-63
2022/09/25 11:51:54;;;;;;;;;;;15.30;86.50;;;;;;5042197;28;20639;-63
2022/09/25 11:54:28;;;;;;;;;;;15.30;86.00;;;;;;5046306;28;19939;-65
2022/09/25 11:57:00;;;;;;;;;;;15.20;86.20;;;;;;5046365;28;19933;-65
2022/09/25 11:59:37;;;;;;;;;;;15.30;86.30;;;;;;5026301;28;20375;-64
2022/09/25 12:02:13;;;;;;;;;;;15.30;86.50;;;;;;5012285;28;19925;-65
2022/09/25 12:04:46;;;;;;;;;;;15.20;86.60;;;;;;5027348;28;19931;-65
2022/09/25 12:07:29;;;;;;;;;;;15.30;86.40;;;;;;5023303;28;19968;-64
2022/09/25 12:10:04;;;;;;;;;;;15.20;86.20;;;;;;5026709;28;20286;-64
2022/09/25 12:12:38;;;;;;;;;;;15.30;86.30;;;;;;5017898;28;19925;-64
2022/09/25 12:15:09;;;;;;;;;;;15.30;86.50;;;;;;5025519;28;19926;-64
2022/09/25 12:17:40;;;;;;;;;;;15.30;86.40;;;;;;5026772;28;19933;-64
2022/09/25 12:20:13;;;;;;;;;;;15.30;86.50;;;;;;5023750;28;19933;-66
2022/09/25 12:22:47;;;;;;;;;;;15.30;86.40;;;;;;5020809;28;20056;-64
2022/09/25 12:25:18;;;;;;;;;;;15.40;86.60;;;;;;5021933;28;19961;-64
2022/09/25 12:27:49;;;;;;;;;;;15.40;86.50;;;;;;5021195;28;19929;-64
2022/09/25 12:30:18;;;;;;;;;;;15.40;86.40;;;;;;5017782;28;19933;-65
2022/09/25 12:33:01;;;;;;;;;;;15.50;86.30;;;;;;5019102;28;19960;-64
2022/09/25 12:35:33;;;;;;;;;;;15.50;86.40;;;;;;5044011;28;20338;-66
2022/09/25 12:38:02;;;;;;;;;;;15.60;86.20;;;;;;5035652;28;19933;-64
2022/09/25 12:40:32;;;;;;;;;;;15.60;86.00;;;;;;5046180;28;19929;-64
2022/09/25 12:43:02;;;;;;;;;;;15.70;85.30;;;;;;5042411;28;19990;-64
2022/09/25 12:45:32;;;;;;;;;;;15.80;84.70;;;;;;5042459;28;20307;-64
2022/09/25 12:48:03;;;;;;;;;;;15.90;83.80;;;;;;5046400;28;19939;-64
2022/09/25 12:50:32;;;;;;;;;;;15.90;83.90;;;;;;5039992;28;20338;-64
2022/09/25 12:53:05;;;;;;;;;;;15.90;83.00;;;;;;5041790;28;19924;-64
2022/09/25 12:55:38;;;;;;;;;;;15.90;82.80;;;;;;5034930;28;20386;-65
2022/09/25 12:58:17;;;;;;;;;;;15.90;83.30;;;;;;5046045;28;19924;-63
2022/09/25 13:00:45;;;;;;;;;;;15.90;83.20;;;;;;5028347;28;20010;-64
2022/09/25 13:03:16;;;;;;;;;;;15.90;83.00;;;;;;5036959;28;19925;-64
2022/09/25 13:05:45;;;;;;;;;;;15.90;82.60;;;;;;5038690;28;19936;-64
2022/09/25 13:08:14;;;;;;;;;;;15.90;82.20;;;;;;5042280;28;19932;-62
2022/09/25 13:10:46;;;;;;;;;;;15.90;82.00;;;;;;5034167;28;19929;-61
2022/09/25 13:13:18;;;;;;;;;;;15.80;82.10;;;;;;5040527;28;19940;-64
2022/09/25 13:15:45;;;;;;;;;;;15.80;81.80;;;;;;5038099;28;19929;-63
2022/09/25 13:18:17;;;;;;;;;;;15.80;82.00;;;;;;5038819;28;20519;-64
2022/09/25 13:20:48;;;;;;;;;;;15.70;81.80;;;;;;5041171;28;19925;-63
2022/09/25 13:23:15;;;;;;;;;;;15.70;81.70;;;;;;5041169;28;19925;-64
2022/09/25 13:25:43;;;;;;;;;;;15.60;81.60;;;;;;5034507;28;19932;-64
2022/09/25 13:28:18;;;;;;;;;;;15.70;81.90;;;;;;5020330;28;19937;-64
2022/09/25 13:30:56;;;;;;;;;;;15.70;81.80;;;;;;5034969;28;20342;-64
2022/09/25 13:33:23;;;;;;;;;;;15.70;81.30;;;;;;5017754;28;20018;-64
2022/09/25 13:36:01;;;;;;;;;;;15.70;81.00;;;;;;5022293;28;19925;-63
2022/09/25 13:41:09;;;;;;;;;;;15.70;81.40;;;;;;4979364;28;19929;-61
2022/09/25 13:43:37;;;;;;;;;;;15.60;81.40;;;;;;5012031;28;19926;-64
2022/09/25 13:46:23;;;;;;;;;;;15.70;81.10;;;;;;5017310;28;19933;-64
2022/09/25 13:48:51;;;;;;;;;;;15.70;81.10;;;;;;5017292;28;19984;-64
2022/09/25 13:51:36;;;;;;;;;;;15.70;81.10;;;;;;5023390;28;19956;-63
2022/09/25 13:54:03;;;;;;;;;;;15.70;80.90;;;;;;5018829;28;19939;-65
2022/09/25 13:56:45;;;;;;;;;;;15.70;80.80;;;;;;5017549;28;19925;-63
2022/09/25 13:59:27;;;;;;;;;;;15.70;81.00;;;;;;5001080;28;19925;-64
2022/09/25 14:02:23;;;;;;;;;;;15.70;80.80;;;;;;5023084;28;20016;-62
2022/09/25 14:04:51;;;;;;;;;;;15.60;80.10;;;;;;5041567;28;20020;-62
2022/09/25 14:07:19;;;;;;;;;;;15.50;80.80;;;;;;5045550;28;19925;-64
2022/09/25 14:09:48;;;;;;;;;;;15.50;80.90;;;;;;5040338;28;20401;-64
2022/09/25 14:12:26;;;;;;;;;;;15.50;80.90;;;;;;5039804;28;19936;-64
2022/09/25 14:14:56;;;;;;;;;;;15.50;81.00;;;;;;5042809;28;20379;-65
2022/09/25 14:17:23;;;;;;;;;;;15.40;81.20;;;;;;5019989;28;19929;-64
2022/09/25 14:19:53;;;;;;;;;;;15.50;81.00;;;;;;5011343;28;19929;-65
2022/09/25 14:22:23;;;;;;;;;;;15.40;81.20;;;;;;5034819;28;19986;-64
2022/09/25 14:24:49;;;;;;;;;;;15.40;81.60;;;;;;5043479;28;19935;-64
2022/09/25 14:27:21;;;;;;;;;;;15.30;81.90;;;;;;5032921;28;20426;-64
2022/09/25 14:29:48;;;;;;;;;;;15.30;81.60;;;;;;5042869;28;20018;-64
2022/09/25 14:32:18;;;;;;;;;;;15.30;81.30;;;;;;5042301;28;19925;-64
2022/09/25 14:34:52;;;;;;;;;;;15.30;81.40;;;;;;5043208;28;19972;-65
2022/09/25 14:37:30;;;;;;;;;;;15.30;81.40;;;;;;5030602;28;19995;-63
2022/09/25 14:40:02;;;;;;;;;;;15.30;81.50;;;;;;5039840;28;19925;-63
2022/09/25 14:42:36;;;;;;;;;;;15.30;81.40;;;;;;5033540;28;19994;-65
2022/09/25 14:45:07;;;;;;;;;;;15.30;81.50;;;;;;5013922;28;19940;-64
2022/09/25 14:47:35;;;;;;;;;;;15.30;81.80;;;;;;5034368;28;19924;-65
2022/09/25 14:50:02;;;;;;;;;;;15.30;81.80;;;;;;5040537;28;19964;-65